Fallbrook, CA

2:26 AM PDT en Octubre 25, 2014 (GMT -0700)
Live Oak Park Rd. | Change Station
CLOSE
Current Station
Estación meteorológica personal
Location: Fallbrook, CA
Altura: 880 ft
Estaciones meteorológicas cercanas

Alt 880 ft 33.38 °N, 117.21 °W | Updated 7 minutes ago

Parcialmente nublado
Parcialmente nublado
66.4 ° F
Sensación térmica 66.4 ° F
N
1.3
Viento Variable Viento desde NE
Gusts 3.1 mph

Hoy
Alta -- | Baja -- ° F
--% Posibilidad de precipitaciones
Ayer
Alta -- | Baja -- ° F
Precip. -- pul
7:01 AM 6:03 PM
Luna nueva, 2% visible
Presión 30.01 pul
Visibilidad 10.0 Millas
Nubes Baja 9500 ft
Punto de rocío 36 ° F
Humedad 32%
Precipitaciones 0.00 pul
Espesor de la nieve No disponible.
UV 0 de una escala de 12
Polen 3.80 de una escala de 12
Ozono Buena
PM2.5 Moderada
Flu Activity Sporadic
METAR KNFG 250854Z AUTO 03003KT 10SM FEW095 14/02 A3001 RMK AO2 SLP161 T01440022 53006 $

More Conditions Fewer Conditions

Presión 30.01 pul
Visibilidad 10.0 Millas
Nubes Baja 9500 ft
Punto de rocío 36 ° F
Humedad 32%
Precipitaciones 0.00 pul
Espesor de la nieve No disponible.
UV 0 de una escala de 12
Polen 3.80 de una escala de 12
Ozono Buena
PM2.5 Moderada
Flu Activity Sporadic
METAR KNFG 250854Z AUTO 03003KT 10SM FEW095 14/02 A3001 RMK AO2 SLP161 T01440022 53006 $

More Conditions Fewer Conditions

10-Day Weather Forecast

Almanac

Astronomía

Oct. 25, 2014 Salida Puesta
Hora real 7:01 AM PDT 6:03 PM PDT
Crepúsculo civil 6:36 AM PDT 6:29 PM PDT
Crepúsculo náutico 6:07 AM PDT 6:58 PM PDT
Crepúsculo astronómico 5:38 AM PDT 7:27 PM PDT
Luna 8:41 AM PDT 7:34 PM PDT
Horas de luz 11h 52m
Horas de luz
11h 02m
Tomorrow will be 1m 52s shorter.
Luna nueva, 2% of the Moon is Illuminated
Hoy
Luna nueva
Oct 30
Cuarto creciente
Nov 6
Luna llena
Nov 14
Cuarto menguante
Nov 22
Nueva

Extremos de hoy

Máximos del estado Bajos del estado

Community

WunderPhotos

Upload Photos

1,764,796 ¡fotos cargadas!

Nearby

Calidad del aire

  Calidad del aire Índice AQ Contaminante
Ayer Moderada
PM2.5
Ayer Buena
OZONE
Real Moderada
PM2.5
Real Buena
OZONE
Sábado Moderada
PM2.5
Sábado Buena
OZONE
Domingo Buena
PM2.5
Domingo Buena
OZONE
Lunes Buena
PM2.5
Lunes Buena
OZONE

Grosos de nieve

Estación Profundido Altura
Virginia Lakes Ridge 0 in 9200 ft
Leavitt Lake 1 in 9400 ft
Leavitt Meadows 0 in 7200 ft
Sonora Pass 0 in 8800 ft
Summit Meadow 1 in 9122 ft

Actividad de terremotos

Ciudad Distance Mag. Tiempo y dato
Maneadero, Mexico 143 Millas 2.5 7:44 AM PDT
2014-10-24
San Felipe, Mexico 165 Millas 3.0 11:00 PM PDT
2014-10-23
Brea, California 55 Millas 2.9 3:35 PM PDT
2014-10-23
Brea, California 54 Millas 2.8 3:34 PM PDT
2014-10-23
Magnitud mínima muestra es 2,5.

Temperaturas de aguas costeras

Lugar Temperatura
La Jolla, CA 71.1 ° F
San Diego, CA 73.9 ° F

Estaciones meteorológicas cercanas